Time;durP1;ratioP1;P1;durP2;ratioP2;P2;SDS_P1;SDS_P2;PMS_P1;PMS_P2;Temp;Humidity;BMP_temperature;BMP_pressure;BME280_temperature;BME280_humidity;BME280_pressure;Samples;Min_cycle;Max_cycle;Signal;HPM_P1;HPM_P2
2022/04/25 00:02:25;;;;;;;23.27;16.53;;;9.70;99.90;;;9.73;77.11;96606.88;5045988;28;20049;-49
2022/04/25 00:04:53;;;;;;;20.80;15.90;;;9.50;99.90;;;9.66;77.14;96612.09;5044418;28;20052;-47
2022/04/25 00:07:21;;;;;;;24.20;16.43;;;9.40;99.90;;;9.78;76.29;96609.00;5044738;28;20049;-52
2022/04/25 00:09:49;;;;;;;27.77;18.40;;;9.50;99.90;;;9.75;76.62;96612.00;5045129;28;20051;-47
2022/04/25 00:12:17;;;;;;;25.30;17.57;;;9.50;99.90;;;9.74;76.35;96610.38;5045835;28;20059;-49
2022/04/25 00:14:45;;;;;;;25.50;18.07;;;9.50;99.90;;;9.61;76.33;96619.75;5044293;28;20240;-47
2022/04/25 00:17:12;;;;;;;25.93;17.57;;;9.40;99.90;;;9.46;76.70;96622.41;5044606;28;20056;-48
2022/04/25 00:19:40;;;;;;;24.67;18.60;;;9.20;99.90;;;9.59;76.14;96619.13;5045112;28;20045;-49
2022/04/25 00:22:08;;;;;;;24.63;18.43;;;9.30;99.90;;;9.49;76.46;96621.22;5044725;28;20067;-47
2022/04/25 00:24:36;;;;;;;25.00;17.87;;;9.30;99.90;;;9.59;76.15;96616.47;5044761;28;20051;-48
2022/04/25 00:27:04;;;;;;;24.90;19.23;;;9.30;99.90;;;9.62;75.96;96609.97;5043428;28;20049;-48
2022/04/25 00:29:32;;;;;;;25.07;18.53;;;9.30;99.90;;;9.60;75.49;96610.16;5045337;28;20370;-49
2022/04/25 00:32:00;;;;;;;26.23;19.03;;;9.30;99.90;;;9.61;75.36;96609.13;5044754;28;20057;-47
2022/04/25 00:34:28;;;;;;;23.90;18.23;;;9.30;99.90;;;9.61;75.46;96617.09;5044792;28;20067;-47
2022/04/25 00:36:56;;;;;;;21.97;16.87;;;9.20;99.90;;;9.47;75.32;96612.59;5045100;28;20068;-47
2022/04/25 00:39:24;;;;;;;24.00;17.80;;;9.10;99.90;;;9.50;75.26;96612.25;5044867;28;20050;-46
2022/04/25 00:41:52;;;;;;;23.00;16.83;;;9.10;99.90;;;9.46;75.30;96611.78;5044796;28;20045;-49
2022/04/25 00:44:20;;;;;;;28.90;18.60;;;9.00;99.90;;;9.40;75.24;96614.31;5043558;28;20052;-48
2022/04/25 00:46:51;;;;;;;24.27;17.93;;;9.00;99.90;;;9.37;75.13;96612.03;5043947;28;20049;-49
2022/04/25 00:49:19;;;;;;;23.77;17.97;;;9.00;99.90;;;9.25;75.21;96611.63;5043584;28;20057;-46
2022/04/25 00:51:47;;;;;;;24.93;18.63;;;8.80;99.90;;;9.17;75.36;96614.31;5044678;28;20067;-47
2022/04/25 00:54:15;;;;;;;24.23;17.90;;;8.80;99.90;;;9.05;75.74;96621.88;5043150;28;20052;-46
2022/04/25 00:56:43;;;;;;;27.77;20.87;;;8.70;99.90;;;9.01;75.89;96616.09;5044004;28;20057;-49
2022/04/25 00:59:12;;;;;;;24.33;18.03;;;8.70;99.90;;;9.01;76.10;96624.06;5044016;28;20045;-49
2022/04/25 01:01:40;;;;;;;25.13;18.20;;;8.70;99.90;;;9.09;75.89;96625.81;5042918;28;20047;-47
2022/04/25 01:04:09;;;;;;;27.07;19.00;;;8.80;99.90;;;9.11;76.04;96620.34;5043695;28;20041;-47
2022/04/25 01:06:38;;;;;;;26.70;18.00;;;8.80;99.90;;;8.97;76.62;96619.28;5042828;28;20052;-47
2022/04/25 01:09:06;;;;;;;27.93;18.60;;;8.70;99.90;;;8.94;76.80;96623.13;5045221;28;20057;-51
2022/04/25 01:11:34;;;;;;;26.93;19.87;;;8.70;99.90;;;8.96;76.79;96626.44;5044118;28;20063;-49
2022/04/25 01:14:17;;;;;;;26.20;19.83;;;8.70;99.90;;;9.04;76.41;96628.19;5044016;28;20318;-48
2022/04/25 01:16:47;;;;;;;24.23;18.13;;;8.80;99.90;;;9.04;76.67;96622.88;5043532;28;20056;-47
2022/04/25 01:19:16;;;;;;;23.00;16.17;;;8.80;99.90;;;9.07;76.58;96630.50;5044286;28;20063;-47
2022/04/25 01:22:06;;;;;;;26.23;19.40;;;8.80;99.90;;;8.96;76.74;96631.75;5043923;28;20047;-46
2022/04/25 01:27:21;;;;;;;27.00;18.43;;;8.80;99.90;;;9.20;76.25;96632.56;5043487;28;20257;-46
2022/04/25 01:29:52;;;;;;;25.57;18.47;;;9.00;99.90;;;9.13;76.40;96632.47;5043721;28;20247;-46
2022/04/25 01:32:24;;;;;;;25.80;18.73;;;8.90;99.90;;;9.14;75.96;96634.09;5043270;28;20056;-49
2022/04/25 01:34:52;;;;;;;22.43;16.93;;;8.90;99.90;;;9.12;76.35;96633.44;5044123;28;20328;-47
2022/04/25 01:37:20;;;;;;;26.90;19.30;;;8.90;99.90;;;9.10;76.57;96637.28;5043133;28;20049;-48
2022/04/25 01:39:51;;;;;;;21.77;16.83;;;8.80;99.90;;;9.13;76.53;96634.28;5042227;28;20265;-49
2022/04/25 01:42:20;;;;;;;23.47;17.07;;;8.90;99.90;;;9.13;76.38;96634.28;5043507;28;20049;-49
2022/04/25 01:44:49;;;;;;;27.00;19.17;;;8.90;99.90;;;9.20;76.25;96633.38;5043452;28;20052;-51
2022/04/25 01:47:18;;;;;;;26.37;18.03;;;8.90;99.90;;;9.14;76.70;96639.41;5042720;28;20049;-47
2022/04/25 01:49:46;;;;;;;24.50;18.27;;;8.90;99.90;;;9.16;76.58;96636.59;5042120;28;20049;-47
2022/04/25 01:52:32;;;;;;;25.13;18.33;;;8.90;99.90;;;8.97;77.31;96638.69;5043559;28;20057;-47
2022/04/25 01:55:02;;;;;;;23.27;17.13;;;8.80;99.90;;;9.00;77.07;96637.53;5025939;28;20050;-47
2022/04/25 01:57:30;;;;;;;25.47;19.13;;;8.80;99.90;;;9.04;77.18;96639.63;5042799;28;20047;-48
2022/04/25 01:59:58;;;;;;;26.17;18.97;;;8.80;99.90;;;9.02;77.24;96636.34;5042516;28;20053;-48
2022/04/25 02:02:26;;;;;;;25.83;18.20;;;8.80;99.90;;;9.05;77.37;96637.81;5043099;28;20365;-47
2022/04/25 02:04:54;;;;;;;29.77;20.17;;;8.90;99.90;;;9.04;77.47;96638.81;5042636;28;20251;-47
2022/04/25 02:07:22;;;;;;;25.10;17.13;;;8.80;99.90;;;9.04;77.46;96633.50;5041492;28;20052;-48
2022/04/25 02:09:50;;;;;;;28.17;19.37;;;8.90;99.90;;;9.13;77.34;96639.56;5043044;28;20434;-49
2022/04/25 02:12:20;;;;;;;26.50;17.40;;;8.90;99.90;;;9.11;77.25;96642.44;5042994;28;20049;-47
2022/04/25 02:14:48;;;;;;;24.37;17.60;;;8.90;99.90;;;9.06;77.46;96648.25;5041970;28;20057;-47
2022/04/25 02:17:16;;;;;;;22.40;17.00;;;8.80;99.90;;;9.05;77.86;96651.06;5041888;28;20365;-46
2022/04/25 02:19:44;;;;;;;25.47;17.93;;;8.90;99.90;;;9.15;77.02;96650.84;5042878;28;20123;-47
2022/04/25 02:22:13;;;;;;;25.63;18.37;;;8.90;99.90;;;9.19;77.18;96654.81;5042707;28;20050;-50
2022/04/25 02:24:41;;;;;;;23.77;16.97;;;9.00;99.90;;;9.09;77.20;96654.22;5042990;28;20059;-47
2022/04/25 02:27:10;;;;;;;28.40;19.90;;;8.90;99.90;;;9.12;77.02;96652.03;5042465;28;20052;-46
2022/04/25 02:29:39;;;;;;;27.13;19.20;;;8.80;99.90;;;8.99;77.45;96649.94;5042534;28;20347;-47
2022/04/25 02:32:12;;;;;;;23.70;17.87;;;8.70;99.90;;;9.10;77.12;96655.88;5041580;28;20045;-50
2022/04/25 02:34:40;;;;;;;24.70;18.37;;;8.80;99.90;;;9.18;77.19;96655.81;5042828;28;20049;-46
2022/04/25 02:37:08;;;;;;;26.83;19.13;;;8.90;99.90;;;9.18;77.02;96656.63;5042186;28;20052;-47
2022/04/25 02:39:36;;;;;;;25.17;19.07;;;8.90;99.90;;;9.23;76.85;96662.25;5042514;28;20366;-49
2022/04/25 02:42:04;;;;;;;26.10;19.13;;;9.00;99.90;;;9.25;76.71;96664.75;5041229;28;20045;-49
2022/04/25 02:44:32;;;;;;;26.13;18.13;;;9.00;99.90;;;9.31;76.68;96663.22;5042530;28;20239;-47
2022/04/25 02:47:01;;;;;;;28.37;20.37;;;9.00;99.90;;;9.32;76.68;96668.31;5041276;28;20063;-50
2022/04/25 02:49:28;;;;;;;28.00;18.83;;;9.10;99.90;;;9.42;76.48;96666.28;5042416;28;20049;-48
2022/04/25 02:51:57;;;;;;;24.70;17.97;;;9.20;99.90;;;9.51;76.20;96664.38;5042401;28;20047;-46
2022/04/25 02:54:24;;;;;;;26.57;18.50;;;9.30;99.90;;;9.51;75.97;96656.41;5042176;28;20056;-49
2022/04/25 02:56:52;;;;;;;28.27;19.07;;;9.30;99.90;;;9.51;75.69;96667.03;5040747;28;20060;-45
2022/04/25 02:59:20;;;;;;;27.07;19.77;;;9.20;99.90;;;9.44;75.67;96658.94;5042854;28;20123;-48
2022/04/25 03:01:48;;;;;;;28.63;19.17;;;9.10;99.90;;;9.48;75.46;96666.56;5042290;28;20045;-46
2022/04/25 03:04:16;;;;;;;27.57;19.30;;;9.10;99.90;;;9.40;75.47;96662.13;5042086;28;20052;-47
2022/04/25 03:06:44;;;;;;;28.43;19.70;;;9.00;99.90;;;9.37;75.48;96668.63;5041671;28;20362;-48
2022/04/25 03:09:12;;;;;;;29.00;20.73;;;9.00;99.90;;;9.29;75.46;96673.19;5042077;28;20041;-49
2022/04/25 03:11:40;;;;;;;31.40;19.93;;;8.80;99.90;;;9.23;75.50;96677.38;5041956;28;20050;-48
2022/04/25 03:14:07;;;;;;;28.27;19.93;;;8.80;99.90;;;9.23;75.49;96672.88;5042055;28;20053;-48
2022/04/25 03:16:35;;;;;;;29.53;20.87;;;8.80;99.90;;;9.23;75.59;96675.53;5041746;28;20061;-46
2022/04/25 03:19:03;;;;;;;25.67;17.83;;;8.90;99.90;;;9.32;75.83;96676.28;5042058;28;20049;-51
2022/04/25 03:21:31;;;;;;;29.90;19.73;;;9.00;99.90;;;9.39;75.63;96684.41;5041935;28;20362;-47
2022/04/25 03:24:02;;;;;;;28.63;19.27;;;9.10;99.90;;;9.36;75.47;96685.56;5040822;28;20037;-45
2022/04/25 03:26:30;;;;;;;29.60;19.70;;;9.10;99.90;;;9.27;75.65;96691.94;5041802;28;20045;-49
2022/04/25 03:28:58;;;;;;;29.80;21.43;;;8.90;99.90;;;9.25;75.71;96699.25;5046276;28;20049;-47
2022/04/25 03:31:26;;;;;;;29.50;20.10;;;8.90;99.90;;;9.13;75.65;96690.88;5045839;28;20046;-49
2022/04/25 03:33:54;;;;;;;32.07;21.80;;;8.80;99.90;;;9.13;76.00;96700.66;5046133;28;20053;-47
2022/04/25 03:36:22;;;;;;;32.47;22.33;;;8.80;99.90;;;9.16;75.57;96700.31;5045404;28;20051;-48
2022/04/25 03:38:53;;;;;;;29.07;21.43;;;8.80;99.90;;;9.16;75.49;96693.16;5046276;28;20053;-49
2022/04/25 03:41:21;;;;;;;30.50;21.70;;;8.80;99.90;;;9.07;75.75;96694.22;5045718;28;20095;-45
2022/04/25 03:43:49;;;;;;;30.40;21.90;;;8.80;99.90;;;9.06;75.73;96696.03;5045742;28;20217;-46
2022/04/25 03:46:17;;;;;;;30.90;21.33;;;8.60;99.90;;;9.13;75.52;96693.53;5045227;28;20049;-51
2022/04/25 03:48:45;;;;;;;35.47;23.93;;;8.80;99.90;;;9.17;75.53;96693.97;5044549;28;20049;-50
2022/04/25 03:51:14;;;;;;;34.67;23.63;;;8.80;99.90;;;9.14;75.31;96700.47;5044372;28;20047;-46
2022/04/25 03:53:42;;;;;;;31.57;23.80;;;8.80;99.90;;;9.18;75.29;96693.81;5045480;28;20343;-49
2022/04/25 03:58:56;;;;;;;32.70;23.33;;;8.80;99.90;;;9.20;75.06;96702.44;5045551;28;20240;-47
2022/04/25 04:01:23;;;;;;;29.73;22.30;;;8.80;99.90;;;9.25;75.02;96710.72;5045462;28;20053;-50
2022/04/25 04:03:51;;;;;;;29.33;21.87;;;8.90;99.90;;;9.30;75.29;96714.66;5045772;28;20076;-48
2022/04/25 04:06:25;;;;;;;29.60;21.07;;;9.00;99.90;;;9.34;74.93;96716.78;5045030;28;20041;-49
2022/04/25 04:08:52;;;;;;;32.27;23.20;;;9.00;99.90;;;9.38;74.88;96720.78;5045336;28;20048;-50
2022/04/25 04:11:20;;;;;;;31.17;22.67;;;9.10;99.90;;;9.43;74.80;96712.25;5043930;28;20041;-48
2022/04/25 04:13:48;;;;;;;32.77;22.43;;;9.20;99.90;;;9.46;74.57;96709.25;5045215;28;20049;-46
2022/04/25 04:16:16;;;;;;;32.17;21.90;;;9.20;99.90;;;9.48;74.66;96717.88;5044670;28;20045;-49
2022/04/25 04:18:44;;;;;;;33.83;22.07;;;9.20;99.90;;;9.46;74.46;96718.03;5045529;28;20352;-47
2022/04/25 04:21:13;;;;;;;35.87;26.50;;;9.20;99.90;;;9.44;74.35;96721.88;5044820;28;20049;-47
2022/04/25 04:23:40;;;;;;;32.80;24.13;;;9.10;99.90;;;9.41;74.37;96725.72;5043812;28;20266;-48
2022/04/25 04:26:08;;;;;;;34.10;24.10;;;9.00;99.90;;;9.40;74.22;96737.34;5044525;28;20049;-51
2022/04/25 04:28:36;;;;;;;33.83;23.77;;;9.00;99.90;;;9.42;74.45;96737.16;5045008;28;20070;-49
2022/04/25 04:31:04;;;;;;;35.33;23.27;;;9.10;99.90;;;9.43;74.32;96736.16;5044893;28;20358;-47
2022/04/25 04:33:32;;;;;;;34.10;22.67;;;9.10;99.90;;;9.44;74.24;96743.97;5044023;28;20053;-47
2022/04/25 04:36:18;;;;;;;33.13;24.23;;;9.10;99.90;;;9.44;74.41;96753.75;5044190;28;20373;-48
2022/04/25 04:38:46;;;;;;;32.00;23.77;;;9.10;99.90;;;9.47;74.36;96756.06;5043795;28;20060;-48
2022/04/25 04:41:14;;;;;;;31.03;22.40;;;9.10;99.90;;;9.48;74.11;96754.22;5044739;28;20059;-45
2022/04/25 04:43:42;;;;;;;33.53;23.30;;;9.20;99.90;;;9.52;74.27;96760.84;5044969;28;20057;-46
2022/04/25 04:46:10;;;;;;;32.07;21.70;;;9.20;99.90;;;9.54;74.33;96753.50;5044246;28;20051;-46
2022/04/25 04:48:38;;;;;;;30.67;21.80;;;9.30;99.90;;;9.56;74.00;96768.28;5044572;28;20053;-47
2022/04/25 04:51:08;;;;;;;32.83;23.20;;;9.30;99.90;;;9.60;73.99;96764.28;5044273;28;20129;-47
2022/04/25 04:53:36;;;;;;;30.93;23.63;;;9.40;99.90;;;9.62;74.03;96761.47;5044523;28;20049;-47
2022/04/25 04:56:04;;;;;;;31.43;23.37;;;9.40;99.90;;;9.65;73.75;96764.59;5043926;28;20075;-48
2022/04/25 04:58:38;;;;;;;35.10;24.77;;;9.40;99.90;;;9.69;73.77;96762.38;5044331;28;20252;-46
2022/04/25 05:01:06;;;;;;;33.37;23.40;;;9.50;99.90;;;9.70;73.67;96771.19;5044394;28;20049;-46
2022/04/25 05:03:36;;;;;;;34.30;23.23;;;9.40;99.90;;;9.70;74.03;96763.22;5044109;28;20052;-48
2022/04/25 05:06:05;;;;;;;30.90;21.80;;;9.50;99.90;;;9.71;73.88;96763.03;5043809;28;20049;-47
2022/04/25 05:08:33;;;;;;;33.90;22.23;;;9.50;99.90;;;9.74;73.73;96770.66;5044480;28;20041;-47
2022/04/25 05:11:01;;;;;;;29.90;21.27;;;9.50;99.90;;;9.76;73.67;96770.50;5044133;28;20056;-49
2022/04/25 05:13:29;;;;;;;35.33;23.97;;;9.50;99.90;;;9.75;73.66;96772.31;5044429;28;20059;-46
2022/04/25 05:15:58;;;;;;;31.67;20.90;;;9.40;99.90;;;9.78;73.49;96773.78;5043943;28;20065;-49
2022/04/25 05:18:26;;;;;;;28.47;20.37;;;9.50;99.90;;;9.80;73.71;96787.72;5044043;28;20332;-49
2022/04/25 05:20:54;;;;;;;27.13;19.70;;;9.50;99.90;;;9.82;73.76;96789.19;5043515;28;20053;-48
2022/04/25 05:23:22;;;;;;;31.07;22.20;;;9.50;99.90;;;9.76;73.42;96794.41;5043921;28;20052;-48
2022/04/25 05:25:50;;;;;;;29.47;19.80;;;9.40;99.90;;;9.73;73.42;96792.94;5043281;28;20052;-51
2022/04/25 05:28:17;;;;;;;31.07;21.20;;;9.40;99.90;;;9.69;73.55;96794.28;5044293;28;20049;-51
2022/04/25 05:30:46;;;;;;;30.63;21.67;;;9.40;99.90;;;9.69;73.62;96796.94;5043810;28;20067;-47
2022/04/25 05:33:16;;;;;;;29.83;20.07;;;9.40;99.90;;;9.60;73.77;96796.16;5043984;28;20051;-48
2022/04/25 05:35:45;;;;;;;28.70;19.73;;;9.30;99.90;;;9.61;73.98;96802.31;5043026;28;20272;-48
2022/04/25 05:38:13;;;;;;;30.53;19.27;;;9.30;99.90;;;9.69;74.11;96801.44;5043637;28;20362;-46
2022/04/25 05:40:42;;;;;;;30.30;19.50;;;9.40;99.90;;;9.62;73.94;96803.97;5043402;28;20401;-48
2022/04/25 05:43:10;;;;;;;32.67;21.33;;;9.30;99.90;;;9.61;73.89;96805.78;5043588;28;20124;-48
2022/04/25 05:45:38;;;;;;;29.57;19.17;;;9.30;99.90;;;9.63;74.12;96814.44;5041921;28;20041;-52
2022/04/25 05:51:58;;;;;;;27.10;19.57;;;9.40;99.90;;;9.60;74.22;96809.47;5042356;28;20041;-47
2022/04/25 05:53:40;;;;;;;28.67;18.57;;;9.30;99.90;;;9.65;74.33;96806.25;5043551;28;20055;-47
2022/04/25 05:56:08;;;;;;;32.47;21.77;;;9.40;99.90;;;9.75;74.37;96801.56;5042758;28;20049;-48
2022/04/25 05:58:36;;;;;;;31.17;20.47;;;9.50;99.90;;;9.88;74.32;96816.09;5042984;28;20045;-51
2022/04/25 06:01:04;;;;;;;30.47;19.93;;;9.80;99.90;;;10.00;74.21;96819.97;5043156;28;20361;-47
2022/04/25 06:03:32;;;;;;;26.93;18.57;;;9.90;99.90;;;10.04;74.02;96808.84;5042998;28;20046;-48
2022/04/25 06:06:00;;;;;;;27.63;19.10;;;9.90;99.90;;;10.11;74.23;96808.13;5042550;28;20048;-48
2022/04/25 06:08:27;;;;;;;28.13;19.67;;;10.00;99.90;;;10.19;74.00;96818.69;5043060;28;20049;-50
2022/04/25 06:10:55;;;;;;;24.17;17.47;;;10.10;99.90;;;10.26;74.00;96822.28;5043398;28;20060;-51
2022/04/25 06:13:25;;;;;;;24.87;17.60;;;10.20;99.90;;;10.28;73.90;96822.94;5042890;28;20047;-49
2022/04/25 06:15:53;;;;;;;22.70;16.20;;;10.20;99.90;;;10.35;73.54;96820.41;5043009;28;20045;-50
2022/04/25 06:18:22;;;;;;;25.47;17.53;;;10.30;99.90;;;10.43;73.58;96825.66;5042891;28;20049;-48
2022/04/25 06:20:50;;;;;;;23.73;16.70;;;10.40;99.90;;;10.49;73.35;96818.78;5043041;28;20053;-51
2022/04/25 06:23:18;;;;;;;30.97;20.50;;;10.40;99.90;;;10.54;73.54;96821.72;5043197;28;20064;-47
2022/04/25 06:25:46;;;;;;;26.83;19.47;;;10.50;99.90;;;10.58;73.70;96825.69;5041996;28;20064;-48
2022/04/25 06:28:13;;;;;;;28.50;21.13;;;10.50;99.90;;;10.63;73.44;96829.44;5042529;28;20055;-48
2022/04/25 06:30:41;;;;;;;27.03;18.77;;;10.60;99.90;;;10.69;73.44;96822.56;5042671;28;20305;-46
2022/04/25 06:33:09;;;;;;;22.53;16.17;;;10.60;99.90;;;10.70;73.01;96823.41;5042560;28;20079;-51
2022/04/25 06:35:37;;;;;;;21.43;15.20;;;10.60;99.90;;;10.69;72.48;96822.56;5041956;28;20057;-47
2022/04/25 06:38:05;;;;;;;21.73;15.33;;;10.60;99.90;;;10.70;72.40;96831.38;5042368;28;20045;-48
2022/04/25 06:40:33;;;;;;;21.83;15.43;;;10.50;99.90;;;10.62;72.17;96838.47;5042584;28;20049;-47
2022/04/25 06:43:02;;;;;;;23.93;16.73;;;10.40;99.90;;;10.55;72.24;96836.69;5042883;28;20056;-51
2022/04/25 06:45:30;;;;;;;22.77;15.83;;;10.30;99.90;;;10.58;72.39;96838.97;5041925;28;20243;-48
2022/04/25 06:47:58;;;;;;;22.08;16.10;;;10.40;99.90;;;10.58;72.75;96838.97;5041572;28;20232;-49
2022/04/25 06:50:26;;;;;;;20.98;15.93;;;10.40;99.90;;;10.63;72.41;96833.97;5042609;28;20041;-48
2022/04/25 06:52:54;;;;;;;20.33;15.07;;;10.50;99.90;;;10.69;72.56;96838.56;5042265;28;20041;-46
2022/04/25 06:55:22;;;;;;;23.63;17.27;;;10.60;99.90;;;10.77;72.66;96835.81;5041981;28;20049;-51
2022/04/25 06:57:52;;;;;;;22.60;16.73;;;10.70;99.90;;;10.83;72.67;96839.56;5042128;28;20055;-49
2022/04/25 07:00:20;;;;;;;24.90;17.05;;;10.70;99.90;;;10.76;72.19;96841.28;5042016;28;20050;-50
2022/04/25 07:03:04;;;;;;;21.20;15.98;;;10.70;99.90;;;10.67;72.09;96845.06;5041756;28;20045;-48
2022/04/25 07:05:32;;;;;;;23.40;16.45;;;10.50;99.90;;;10.69;72.34;96843.88;5041666;28;20041;-47
2022/04/25 07:08:00;;;;;;;21.00;14.77;;;10.50;99.90;;;10.63;72.02;96841.94;5042504;28;20054;-48
2022/04/25 07:10:28;;;;;;;23.35;16.20;;;10.40;99.90;;;10.72;72.17;96842.66;5041983;28;20352;-47
2022/04/25 07:12:59;;;;;;;23.23;16.40;;;10.60;99.90;;;10.78;72.21;96836.66;5042050;28;20045;-51
2022/04/25 07:15:27;;;;;;;21.85;16.25;;;10.70;99.90;;;10.88;72.26;96837.19;5040624;28;20049;-50
2022/04/25 07:17:56;;;;;;;22.98;16.05;;;10.90;99.90;;;10.99;72.10;96841.22;5042271;28;20053;-47
2022/04/25 07:20:24;;;;;;;20.67;15.03;;;11.00;99.90;;;11.02;71.96;96844.34;5042056;28;20065;-47
2022/04/25 07:31:13;;;;;;;20.38;15.98;;;11.10;99.90;;;11.18;71.73;96843.34;5042010;28;20049;-46
2022/04/25 07:33:43;;;;;;;20.37;14.93;;;11.10;99.90;;;11.16;71.33;96848.03;5042465;28;20061;-48
2022/04/25 07:36:14;;;;;;;21.45;16.23;;;11.10;99.90;;;11.15;70.84;96853.56;5042158;28;20255;-51
2022/04/25 07:38:46;;;;;;;21.63;16.77;;;11.10;99.90;;;11.15;71.34;96854.38;5041875;28;20045;-48
2022/04/25 07:41:14;;;;;;;25.80;16.98;;;11.00;99.90;;;11.19;70.81;96852.19;5041916;28;20049;-49
2022/04/25 07:43:43;;;;;;;22.20;16.58;;;11.10;99.90;;;11.21;71.26;96856.31;5041828;28;20115;-47
2022/04/25 07:46:13;;;;;;;22.50;16.05;;;11.10;99.90;;;11.25;70.97;96855.94;5041444;28;20233;-48
2022/04/25 07:48:41;;;;;;;20.77;15.00;;;11.10;99.90;;;11.30;70.90;96861.53;5040996;28;20116;-47
2022/04/25 07:51:09;;;;;;;21.55;16.15;;;11.20;99.90;;;11.36;71.19;96858.13;5042082;28;20045;-47
2022/04/25 07:53:37;;;;;;;21.65;16.35;;;11.30;99.90;;;11.37;70.50;96860.59;5041683;28;20049;-49
2022/04/25 07:56:05;;;;;;;42.58;20.17;;;11.30;99.90;;;11.36;70.54;96858.13;5041290;28;20387;-49
2022/04/25 07:58:34;;;;;;;27.58;16.67;;;11.30;99.90;;;11.37;70.60;96862.44;5042485;28;20060;-48
2022/04/25 08:01:03;;;;;;;19.33;14.75;;;11.30;99.90;;;11.40;70.10;96865.56;5041589;28;20049;-50
2022/04/25 08:03:34;;;;;;;20.02;14.95;;;11.30;99.90;;;11.45;70.41;96861.53;5042387;28;20057;-46
2022/04/25 08:06:05;;;;;;;21.10;16.20;;;11.40;99.90;;;11.35;70.21;96865.28;5041162;28;20239;-49
2022/04/25 08:08:32;;;;;;;19.95;15.15;;;11.30;99.90;;;11.33;69.95;96861.16;5041843;28;20042;-49
2022/04/25 08:11:01;;;;;;;20.58;17.20;;;11.30;99.90;;;11.40;70.07;96867.41;5041737;28;20051;-49
2022/04/25 08:19:01;;;;;;;18.10;14.77;;;11.50;99.90;;;11.60;69.73;96868.47;5045066;28;20053;-49
2022/04/25 08:21:29;;;;;;;20.08;16.17;;;11.70;99.90;;;11.69;69.88;96874.53;5044647;28;20055;-50
2022/04/25 08:23:58;;;;;;;19.15;14.48;;;11.80;99.90;;;11.77;69.98;96871.75;5044955;28;20052;-47
2022/04/25 08:26:26;;;;;;;19.38;15.18;;;12.00;99.90;;;11.87;69.36;96866.13;5044777;28;20053;-48
2022/04/25 08:28:54;;;;;;;17.20;13.75;;;12.00;99.90;;;11.99;69.64;96867.31;5045109;28;20037;-49
2022/04/25 08:31:36;;;;;;;18.17;13.40;;;12.20;99.90;;;12.12;69.63;96877.31;5045173;28;20053;-50
2022/04/25 08:34:06;;;;;;;;;;;12.40;99.90;;;12.19;69.07;96880.03;5045889;28;20049;-49
2022/04/25 08:36:34;;;;;;;15.88;12.60;;;12.50;99.90;;;12.34;68.96;96886.13;5044792;28;19917;-48
2022/04/25 08:39:03;;;;;;;15.23;12.40;;;12.60;99.90;;;12.40;68.73;96885.34;5044607;28;20045;-48
2022/04/25 08:41:40;;;;;;;16.38;12.43;;;12.70;99.90;;;12.50;68.53;96886.88;5044010;28;20055;-48
2022/04/25 08:44:10;;;;;;;17.00;13.90;;;12.80;99.90;;;12.53;67.50;96890.00;5044510;28;20045;-49
2022/04/25 08:46:40;;;;;;;16.45;12.95;;;12.80;99.90;;;12.49;67.05;96883.41;5043425;28;20049;-50
2022/04/25 08:49:11;;;;;;;14.75;12.82;;;12.80;99.90;;;12.58;67.42;96900.09;5044225;28;20340;-46
2022/04/25 08:51:40;;;;;;;21.35;13.45;;;12.80;99.90;;;12.59;67.10;96897.25;5043441;28;20051;-47
2022/04/25 08:54:08;;;;;;;15.15;12.63;;;12.80;99.90;;;12.63;66.81;96903.03;5043353;28;20041;-48
2022/04/25 08:56:40;;;;;;;16.33;14.45;;;12.80;99.90;;;12.67;66.79;96898.94;5043898;28;20076;-50
2022/04/25 08:59:10;;;;;;;19.70;14.02;;;12.80;99.90;;;12.65;66.27;96898.31;5044499;28;20363;-48
2022/04/25 09:01:40;;;;;;;49.45;18.48;;;12.90;99.90;;;12.72;66.87;96896.53;5044939;28;20251;-50
2022/04/25 09:04:09;;;;;;;31.02;15.82;;;12.90;99.90;;;12.71;66.57;96905.56;5044418;28;20052;-48
2022/04/25 09:06:37;;;;;;;17.85;14.10;;;12.90;99.90;;;12.73;66.40;96905.38;5042631;28;20045;-50
2022/04/25 09:09:05;;;;;;;15.73;13.10;;;12.90;99.90;;;12.77;66.18;96912.78;5044435;28;20053;-47
2022/04/25 09:14:22;;;;;;;18.05;14.73;;;13.00;99.90;;;12.80;65.95;96916.94;5044022;28;20049;-49
2022/04/25 09:16:50;;;;;;;17.45;14.88;;;13.00;99.90;;;12.84;65.81;96917.38;5043683;28;20050;-52
2022/04/25 09:19:19;;;;;;;20.90;15.10;;;13.00;99.90;;;12.88;65.70;96924.00;5043709;28;20370;-49
2022/04/25 09:21:47;;;;;;;17.42;14.15;;;13.10;99.90;;;12.91;65.39;96927.09;5043281;28;20067;-49
2022/04/25 09:24:29;;;;;;;19.38;15.70;;;13.10;99.90;;;12.95;65.33;96920.34;5043488;28;20057;-52
2022/04/25 09:27:18;;;;;;;16.00;13.77;;;13.10;99.90;;;12.99;65.45;96926.16;5043659;28;20049;-49
2022/04/25 09:29:48;;;;;;;15.73;13.50;;;13.20;99.90;;;13.06;64.98;96926.19;5043014;28;20053;-48
2022/04/25 09:32:31;;;;;;;23.42;14.60;;;13.20;99.90;;;13.11;64.84;96927.25;5043732;28;20075;-50
2022/04/25 09:35:18;;;;;;;20.27;14.73;;;13.40;99.90;;;13.16;64.64;96924.84;5043008;28;20064;-48
2022/04/25 09:37:48;;;;;;;15.23;12.07;;;13.40;99.90;;;13.20;64.30;96930.59;5043505;28;20052;-51
2022/04/25 09:40:22;;;;;;;16.77;13.00;;;13.40;99.90;;;13.21;64.16;96926.91;5043516;28;20041;-49
2022/04/25 09:43:14;;;;;;;15.75;12.68;;;13.40;98.40;;;13.20;64.12;96919.91;5043733;28;20049;-49
2022/04/25 09:45:44;;;;;;;17.52;14.25;;;13.40;97.60;;;13.24;63.91;96918.50;5042792;28;20231;-51
2022/04/25 09:48:15;;;;;;;15.95;12.88;;;13.40;99.80;;;13.26;63.50;96919.13;5042320;28;20332;-49
2022/04/25 09:50:58;;;;;;;17.95;13.32;;;13.50;99.10;;;13.29;63.34;96921.41;5043522;28;20255;-51
2022/04/25 09:53:46;;;;;;;16.30;14.00;;;13.50;98.30;;;13.32;63.05;96922.91;5042184;28;20048;-50
2022/04/25 09:56:23;;;;;;;15.10;13.23;;;13.70;93.70;;;13.41;63.66;96923.56;5042968;28;20056;-49
2022/04/25 09:59:10;;;;;;;18.23;13.90;;;13.70;97.10;;;13.50;63.64;96930.41;5043217;28;20042;-48
2022/04/25 10:01:39;;;;;;;17.75;13.95;;;13.90;94.10;;;13.58;63.25;96927.56;5043220;28;20060;-50
2022/04/25 10:04:36;;;;;;;17.30;14.82;;;13.90;95.80;;;13.67;63.66;96921.03;5042680;28;20073;-47
2022/04/25 10:07:06;;;;;;;17.60;15.15;;;14.00;94.00;;;13.73;62.89;96922.91;5042549;28;20059;-47
2022/04/25 10:09:35;;;;;;;16.40;13.98;;;14.10;94.80;;;13.81;62.74;96921.91;5042980;28;20041;-48
2022/04/25 10:12:05;;;;;;;16.35;13.27;;;14.20;94.80;;;13.90;62.73;96919.88;5043051;28;20271;-49
2022/04/25 10:14:33;;;;;;;17.40;14.18;;;14.30;94.40;;;14.00;62.39;96915.00;5042740;28;20056;-51
2022/04/25 10:17:01;;;;;;;15.88;13.13;;;14.50;93.40;;;14.06;61.99;96921.41;5042078;28;20053;-52
2022/04/25 10:19:30;;;;;;;20.52;14.07;;;14.50;90.00;;;14.13;61.45;96920.41;5042268;28;20053;-49
2022/04/25 10:21:59;;;;;;;19.45;13.82;;;14.50;87.50;;;14.13;60.81;96924.91;5043070;28;20053;-48
2022/04/25 10:24:27;;;;;;;17.92;12.93;;;14.40;85.00;;;14.07;60.51;96929.22;5042396;28;20060;-48
2022/04/25 10:26:57;;;;;;;15.90;13.25;;;14.20;84.40;;;14.05;60.67;96917.06;5042044;28;20049;-50
2022/04/25 10:29:34;;;;;;;17.73;14.18;;;14.20;83.20;;;13.99;60.42;96932.06;5043070;28;20054;-48
2022/04/25 10:32:04;;;;;;;16.50;13.23;;;14.10;79.20;;;13.98;59.95;96933.13;5041529;28;20346;-50
2022/04/25 10:34:59;;;;;;;13.55;11.70;;;14.10;79.40;;;13.93;60.02;96932.88;5041727;28;20366;-51
2022/04/25 10:37:38;;;;;;;15.98;12.68;;;14.00;74.10;;;13.88;59.49;96930.81;5041370;28;20053;-49
2022/04/25 10:40:08;;;;;;;16.17;13.13;;;13.90;77.90;;;13.81;59.23;96927.28;5043290;28;20179;-46
2022/04/25 10:46:01;;;;;;;15.98;13.30;;;13.90;73.40;;;13.76;59.30;96925.22;5042112;28;20052;-46
2022/04/25 10:48:49;;;;;;;22.08;13.65;;;13.70;76.60;;;13.81;59.77;96924.59;5041370;28;20045;-46
2022/04/25 10:51:17;;;;;;;15.02;13.00;;;13.80;78.00;;;13.86;59.33;96934.69;5042041;28;20048;-47
2022/04/25 10:54:14;;;;;;;15.38;12.40;;;14.00;76.60;;;13.84;59.19;96926.88;5042322;28;20045;-49